Cameron Mills, New York
Current Conditions -  °F | °C
As of 6:53 PM on Wednesday 22 Oct 2014 (Local Time) from KELM Reporting Station
Overcast Overcast  
Wind Chill: 45°   Ceiling: 1200
Heat Index: 48°   Visibility: 10mi
Dew Point: 44°   Wind: 6mph
Humidity: 86%   Direction: NA
Pressure: 30.09"   Gusts: 18mph
Location:  42.18°N, 77.36°W
Report Text: KELM 222253Z VRB05G16KT 10SM OVC012 09/07 A3009 RMK AO2 SLP195 T00890067
Loading
Personal Weather Stations






























Interactive Weather Map
Tropical Storm Tracking
New forecast layout! Learn more

10-Day Weather Forecast

Advertisements
Track Severe Weather on mobile